Time;durP1;ratioP1;P1;durP2;ratioP2;P2;SDS_P1;SDS_P2;PMS_P1;PMS_P2;Temp;Humidity;BMP_temperature;BMP_pressure;BME280_temperature;BME280_humidity;BME280_pressure;Samples;Min_cycle;Max_cycle;Signal;HPM_P1;HPM_P2
2021/07/17 00:00:34;;;;;;;25.43;21.77;;;19.60;99.90;;;;;;5053425;28;20445;-93
2021/07/17 00:03:03;;;;;;;23.33;20.83;;;19.60;99.90;;;;;;5055969;28;20473;-91
2021/07/17 00:05:31;;;;;;;31.57;22.43;;;19.50;99.90;;;;;;5042714;28;20525;-93
2021/07/17 00:07:58;;;;;;;24.80;21.27;;;19.50;99.90;;;;;;5040104;28;20435;-92
2021/07/17 00:10:33;;;;;;;26.33;22.13;;;19.50;99.90;;;;;;5040489;28;20454;-91
2021/07/17 00:12:59;;;;;;;23.03;20.53;;;19.50;99.90;;;;;;5039245;28;20457;-91
2021/07/17 00:15:26;;;;;;;31.30;27.03;;;19.50;99.90;;;;;;5051709;28;20519;-90
2021/07/17 00:17:53;;;;;;;30.63;24.73;;;19.40;99.90;;;;;;5058943;28;20451;-91
2021/07/17 00:20:22;;;;;;;23.20;20.60;;;19.50;99.90;;;;;;5048379;28;20534;-91
2021/07/17 00:22:50;;;;;;;27.93;22.00;;;19.50;99.90;;;;;;5054320;28;20489;-92
2021/07/17 00:25:19;;;;;;;24.20;21.60;;;19.50;99.90;;;;;;5042486;28;20538;-92
2021/07/17 00:27:46;;;;;;;23.73;21.13;;;19.40;99.90;;;;;;5041011;28;20538;-93
2021/07/17 00:30:15;;;;;;;24.13;21.60;;;19.40;99.90;;;;;;5047728;28;20451;-93
2021/07/17 00:32:42;;;;;;;24.57;21.80;;;19.40;99.90;;;;;;5039636;28;20503;-93
2021/07/17 00:35:10;;;;;;;27.00;22.50;;;19.40;99.90;;;;;;5037633;28;20451;-93
2021/07/17 00:37:37;;;;;;;23.93;21.40;;;19.50;99.90;;;;;;5037957;28;20465;-93
2021/07/17 00:40:08;;;;;;;28.23;21.97;;;19.50;99.90;;;;;;5038915;28;20487;-93
2021/07/17 00:48:59;;;;;;;25.80;22.97;;;19.40;99.90;;;;;;5045796;28;20436;-87
2021/07/17 01:43:04;;;;;;;;;;;;;;;;;;;;;
2021/07/17 02:30:20;;;;;;;24.67;22.17;;;19.10;99.90;;;;;;6166460;23;20461;-88
2021/07/17 02:32:47;;;;;;;26.40;22.83;;;19.10;99.90;;;;;;6222339;23;20422;-82
2021/07/17 02:35:14;;;;;;;28.37;24.97;;;19.10;99.90;;;;;;6220790;23;20410;-81
2021/07/17 02:37:41;;;;;;;29.00;23.13;;;19.10;99.90;;;;;;6220243;23;20404;-81
2021/07/17 02:40:09;;;;;;;32.93;23.30;;;19.10;99.90;;;;;;6219842;23;20403;-82
2021/07/17 02:42:36;;;;;;;34.53;25.17;;;19.10;99.90;;;;;;6220547;23;20936;-82
2021/07/17 02:45:05;;;;;;;28.00;23.83;;;19.10;99.90;;;;;;6219952;23;20453;-81
2021/07/17 02:47:33;;;;;;;30.03;24.00;;;19.00;99.90;;;;;;6220060;23;20513;-81
2021/07/17 02:50:00;;;;;;;26.83;22.97;;;19.00;99.90;;;;;;6223809;23;20434;-81
2021/07/17 02:52:27;;;;;;;25.87;22.70;;;19.00;99.90;;;;;;6223946;23;20451;-80
2021/07/17 02:54:53;;;;;;;28.10;24.40;;;19.10;99.90;;;;;;6219417;23;20716;-81
2021/07/17 02:57:20;;;;;;;30.87;24.37;;;19.10;99.90;;;;;;6219451;23;20414;-81
2021/07/17 02:59:47;;;;;;;29.10;25.87;;;19.00;99.90;;;;;;6223289;23;20940;-80
2021/07/17 03:02:13;;;;;;;28.23;24.83;;;19.00;99.90;;;;;;6228480;23;20423;-80
2021/07/17 03:04:41;;;;;;;27.90;23.10;;;19.00;99.90;;;;;;6220576;23;20404;-81
2021/07/17 03:07:08;;;;;;;28.70;24.10;;;19.00;99.90;;;;;;6219613;23;20470;-81
2021/07/17 03:09:35;;;;;;;29.90;23.77;;;19.00;99.90;;;;;;6219554;23;20797;-81
2021/07/17 03:12:02;;;;;;;28.93;25.83;;;19.00;99.90;;;;;;6219443;23;20766;-81
2021/07/17 03:14:28;;;;;;;25.80;23.10;;;19.00;99.90;;;;;;6219238;23;20398;-81
2021/07/17 03:16:55;;;;;;;27.30;24.00;;;19.00;99.90;;;;;;6218713;23;20654;-80
2021/07/17 03:19:22;;;;;;;27.87;23.30;;;19.00;99.90;;;;;;6229771;23;20406;-79
2021/07/17 03:21:50;;;;;;;29.10;22.17;;;19.00;99.90;;;;;;6235737;23;20436;-79
2021/07/17 03:24:17;;;;;;;27.13;23.97;;;19.00;99.90;;;;;;6240232;23;20407;-80
2021/07/17 03:26:44;;;;;;;27.07;24.17;;;19.00;99.90;;;;;;6227400;23;20399;-80
2021/07/17 03:29:11;;;;;;;31.20;23.07;;;18.90;99.90;;;;;;6231344;23;20409;-79
2021/07/17 03:31:37;;;;;;;25.60;23.07;;;18.90;99.90;;;;;;6229912;23;20452;-81
2021/07/17 03:34:05;;;;;;;34.77;25.10;;;18.90;99.90;;;;;;6218146;23;20415;-81
2021/07/17 03:36:32;;;;;;;25.70;22.90;;;18.80;99.90;;;;;;6219116;23;20426;-81
2021/07/17 03:39:00;;;;;;;29.93;23.77;;;18.90;99.90;;;;;;6221865;23;20413;-80
2021/07/17 03:41:26;;;;;;;25.63;22.93;;;18.90;99.90;;;;;;6237860;23;20430;-80
2021/07/17 03:43:53;;;;;;;27.60;24.20;;;18.90;99.90;;;;;;6223849;23;20414;-80
2021/07/17 03:46:20;;;;;;;24.60;22.00;;;18.90;99.90;;;;;;6215968;23;20764;-80
2021/07/17 03:48:46;;;;;;;27.37;23.50;;;18.90;99.90;;;;;;6217387;23;20430;-81
2021/07/17 03:51:13;;;;;;;29.80;22.47;;;19.00;99.90;;;;;;6216585;23;20446;-80
2021/07/17 03:53:40;;;;;;;25.80;23.10;;;19.00;99.90;;;;;;6217068;23;20437;-81
2021/07/17 03:56:08;;;;;;;24.67;21.83;;;19.00;99.90;;;;;;6217790;23;20406;-81
2021/07/17 03:58:35;;;;;;;26.00;22.77;;;19.00;99.90;;;;;;6218251;23;20874;-81
2021/07/17 04:01:01;;;;;;;23.93;21.47;;;19.00;99.90;;;;;;6218554;23;20456;-82
2021/07/17 04:03:28;;;;;;;31.73;25.07;;;19.00;99.90;;;;;;6218514;23;20903;-82
2021/07/17 04:05:55;;;;;;;25.23;22.73;;;18.90;99.90;;;;;;6218081;23;20484;-81
2021/07/17 04:08:21;;;;;;;27.17;23.27;;;18.90;99.90;;;;;;6218296;23;20420;-81
2021/07/17 04:10:48;;;;;;;26.10;22.73;;;18.90;99.90;;;;;;6218938;23;20450;-82
2021/07/17 04:13:16;;;;;;;26.27;23.47;;;18.90;99.90;;;;;;6218333;23;20428;-78
2021/07/17 04:15:43;;;;;;;25.63;22.90;;;18.90;99.90;;;;;;6218373;23;20411;-78
2021/07/17 04:18:10;;;;;;;25.57;22.50;;;18.90;99.90;;;;;;6219554;23;20417;-78
2021/07/17 04:20:36;;;;;;;26.13;23.13;;;18.90;99.90;;;;;;6219123;23;20407;-79
2021/07/17 04:23:03;;;;;;;27.30;22.90;;;19.00;99.90;;;;;;6217462;23;20440;-78
2021/07/17 04:25:30;;;;;;;23.87;21.43;;;19.00;99.90;;;;;;6219597;23;20410;-78
2021/07/17 04:27:57;;;;;;;28.50;23.60;;;19.00;99.90;;;;;;6218665;23;20403;-79
2021/07/17 04:30:25;;;;;;;24.60;21.83;;;19.00;99.90;;;;;;6218055;23;20983;-80
2021/07/17 04:32:52;;;;;;;26.47;23.70;;;19.00;99.90;;;;;;6218099;23;20426;-79
2021/07/17 04:35:19;;;;;;;26.40;23.53;;;19.10;99.90;;;;;;6217950;23;20415;-80
2021/07/17 04:37:48;;;;;;;26.40;23.57;;;19.10;99.90;;;;;;6218123;23;20407;-80
2021/07/17 04:40:16;;;;;;;30.27;23.53;;;19.10;99.90;;;;;;6217768;23;20394;-80
2021/07/17 04:42:42;;;;;;;27.50;22.73;;;19.10;99.90;;;;;;6218104;23;20481;-80
2021/07/17 04:45:10;;;;;;;24.97;22.27;;;19.10;99.90;;;;;;6217933;23;20406;-80
2021/07/17 04:47:38;;;;;;;33.90;23.70;;;19.20;99.90;;;;;;6218838;23;20418;-80
2021/07/17 04:50:06;;;;;;;24.40;21.80;;;19.20;99.90;;;;;;6218894;23;20399;-82
2021/07/17 04:52:33;;;;;;;24.17;21.63;;;19.20;99.90;;;;;;6221688;23;20439;-85
2021/07/17 04:54:59;;;;;;;27.57;23.87;;;19.20;99.90;;;;;;6221806;23;20396;-86
2021/07/17 04:57:26;;;;;;;26.63;23.73;;;19.30;99.90;;;;;;6222249;23;20817;-86
2021/07/17 04:59:53;;;;;;;25.93;22.93;;;19.30;99.90;;;;;;6221251;23;20407;-86
2021/07/17 05:02:19;;;;;;;25.77;22.73;;;19.30;99.90;;;;;;6234887;23;20426;-85
2021/07/17 05:04:47;;;;;;;26.63;23.90;;;19.30;99.90;;;;;;6239426;23;20406;-84
2021/07/17 05:07:14;;;;;;;28.23;24.00;;;19.40;99.90;;;;;;6228132;23;20406;-86
2021/07/17 05:09:41;;;;;;;26.70;24.03;;;19.40;99.90;;;;;;6227020;23;20414;-86
2021/07/17 05:12:08;;;;;;;23.90;21.33;;;19.40;99.90;;;;;;6233740;23;20446;-86
2021/07/17 05:14:34;;;;;;;26.83;23.97;;;19.40;99.90;;;;;;6229949;23;20406;-85
2021/07/17 05:17:01;;;;;;;32.10;22.93;;;19.40;99.90;;;;;;6226997;23;20414;-86
2021/07/17 05:19:28;;;;;;;28.47;25.47;;;19.40;99.90;;;;;;6225800;23;20414;-86
2021/07/17 05:21:56;;;;;;;27.03;24.13;;;19.50;99.90;;;;;;6225276;23;20425;-85
2021/07/17 05:24:22;;;;;;;27.80;22.80;;;19.50;99.90;;;;;;6225621;23;20912;-85
2021/07/17 05:26:49;;;;;;;25.13;22.37;;;19.60;99.90;;;;;;6234945;23;20379;-84
2021/07/17 05:29:16;;;;;;;25.90;23.30;;;19.70;99.90;;;;;;6243697;22;20407;-84
2021/07/17 05:31:42;;;;;;;26.90;22.20;;;19.70;99.90;;;;;;6236758;22;20463;-85
2021/07/17 05:34:09;;;;;;;30.93;24.63;;;19.80;99.90;;;;;;6216868;23;20410;-85
2021/07/17 05:36:36;;;;;;;27.40;24.60;;;19.90;99.90;;;;;;6216730;23;20405;-85
2021/07/17 05:39:04;;;;;;;24.10;21.70;;;19.90;99.90;;;;;;6237238;22;20400;-84
2021/07/17 05:41:30;;;;;;;26.27;23.50;;;19.90;99.90;;;;;;6242617;23;20415;-85
2021/07/17 05:43:57;;;;;;;29.00;22.70;;;20.00;99.90;;;;;;6242775;22;20411;-84
2021/07/17 05:46:24;;;;;;;30.03;22.40;;;19.90;99.90;;;;;;6242286;23;20415;-85
2021/07/17 05:48:50;;;;;;;26.37;23.57;;;20.00;99.90;;;;;;6238690;23;20581;-85
2021/07/17 05:51:17;;;;;;;23.30;20.87;;;20.00;99.90;;;;;;6216579;23;20455;-85
2021/07/17 05:53:44;;;;;;;22.73;20.43;;;19.90;99.90;;;;;;6241346;22;20435;-85
2021/07/17 05:56:12;;;;;;;22.50;20.40;;;19.90;99.90;;;;;;6242109;23;20388;-85
2021/07/17 05:58:38;;;;;;;21.77;19.43;;;19.90;99.90;;;;;;6233239;23;20414;-85
2021/07/17 06:01:05;;;;;;;25.57;20.03;;;19.90;99.90;;;;;;6232579;23;20403;-85
2021/07/17 06:03:32;;;;;;;22.40;20.10;;;19.90;99.90;;;;;;6231824;23;20405;-85
2021/07/17 06:05:59;;;;;;;23.03;20.80;;;20.00;99.90;;;;;;6224100;23;20415;-85
2021/07/17 06:08:25;;;;;;;23.67;21.17;;;20.10;99.90;;;;;;6222409;23;20420;-85
2021/07/17 06:10:52;;;;;;;26.63;21.33;;;20.20;99.90;;;;;;6219249;23;20504;-84
2021/07/17 06:13:21;;;;;;;23.13;20.17;;;20.30;99.90;;;;;;6218049;23;20933;-85
2021/07/17 06:15:48;;;;;;;22.70;18.30;;;20.30;99.90;;;;;;6218254;23;20421;-84
2021/07/17 06:18:15;;;;;;;21.40;19.20;;;20.40;99.90;;;;;;6217892;23;20419;-85
2021/07/17 06:20:42;;;;;;;21.70;19.57;;;20.30;99.90;;;;;;6218109;23;20466;-84
2021/07/17 06:23:09;;;;;;;22.80;18.80;;;20.20;99.90;;;;;;6218405;23;20448;-84
2021/07/17 06:25:36;;;;;;;22.20;20.07;;;20.20;99.90;;;;;;6218243;23;20755;-85
2021/07/17 06:28:03;;;;;;;19.67;17.77;;;20.30;99.90;;;;;;6219684;23;20962;-85
2021/07/17 06:30:31;;;;;;;21.40;19.27;;;20.30;99.90;;;;;;6224655;23;20389;-85
2021/07/17 06:32:58;;;;;;;22.80;19.60;;;20.30;99.90;;;;;;6226744;23;20440;-85
2021/07/17 06:35:25;;;;;;;21.50;19.47;;;20.40;99.90;;;;;;6225878;23;20406;-86
2021/07/17 06:37:52;;;;;;;20.70;18.60;;;20.40;99.90;;;;;;6226718;23;20830;-84
2021/07/17 06:40:19;;;;;;;21.43;19.47;;;20.50;99.90;;;;;;6232200;23;20478;-86
2021/07/17 06:42:49;;;;;;;22.13;19.77;;;20.50;99.90;;;;;;6232618;22;20458;-89
2021/07/17 06:45:17;;;;;;;22.10;18.53;;;20.50;99.90;;;;;;6254794;23;20401;-91
2021/07/17 06:47:45;;;;;;;21.70;18.93;;;20.60;99.90;;;;;;6254174;23;20417;-90
2021/07/17 06:50:14;;;;;;;22.13;19.80;;;20.60;99.90;;;;;;6258390;23;20422;-89
2021/07/17 06:52:41;;;;;;;21.50;19.33;;;20.70;99.90;;;;;;6271932;22;20446;-89
2021/07/17 06:55:10;;;;;;;22.20;19.87;;;20.70;99.90;;;;;;6272853;22;20429;-90
2021/07/17 06:57:38;;;;;;;21.40;19.47;;;20.80;99.90;;;;;;6269420;23;20438;-90
2021/07/17 07:00:06;;;;;;;20.87;18.73;;;20.80;99.90;;;;;;6270847;22;20404;-90
2021/07/17 07:02:32;;;;;;;21.90;18.63;;;20.90;99.90;;;;;;6253665;22;20428;-89
2021/07/17 07:05:01;;;;;;;20.87;18.53;;;20.90;99.90;;;;;;6253522;23;20412;-91
2021/07/17 07:07:27;;;;;;;20.67;18.57;;;20.90;99.90;;;;;;6254254;23;20922;-90
2021/07/17 07:09:54;;;;;;;21.63;19.37;;;21.00;99.90;;;;;;6251621;23;20777;-91
2021/07/17 07:12:21;;;;;;;21.43;19.13;;;20.90;99.90;;;;;;6254638;22;20443;-90
2021/07/17 07:14:48;;;;;;;21.03;19.07;;;21.00;99.90;;;;;;6251070;23;20403;-90
2021/07/17 07:17:14;;;;;;;21.40;18.00;;;20.90;99.90;;;;;;6248336;23;20409;-90
2021/07/17 07:19:41;;;;;;;19.97;17.40;;;20.90;99.90;;;;;;6251595;23;20408;-90
2021/07/17 07:22:09;;;;;;;21.77;17.13;;;20.90;99.90;;;;;;6257144;22;20388;-89
2021/07/17 07:24:36;;;;;;;20.17;18.17;;;21.00;99.90;;;;;;6274831;22;20388;-88
2021/07/17 07:27:03;;;;;;;20.90;18.73;;;21.10;99.90;;;;;;6274513;22;20607;-88
2021/07/17 07:29:30;;;;;;;20.63;17.30;;;21.10;99.90;;;;;;6272895;22;20410;-90
2021/07/17 07:32:00;;;;;;;21.87;18.60;;;21.20;99.90;;;;;;6260854;23;20510;-90
2021/07/17 07:34:27;;;;;;;19.40;17.43;;;21.20;99.90;;;;;;6274112;22;20388;-89
2021/07/17 07:36:58;;;;;;;26.80;18.83;;;21.20;99.90;;;;;;6273856;22;20475;-89
2021/07/17 07:39:26;;;;;;;20.53;18.43;;;21.10;99.90;;;;;;6267362;22;20405;-91
2021/07/17 07:41:53;;;;;;;23.70;19.00;;;20.90;99.90;;;;;;6268992;22;20464;-90
2021/07/17 07:44:21;;;;;;;21.03;19.03;;;20.90;99.90;;;;;;6271182;22;20474;-92
2021/07/17 07:46:49;;;;;;;22.63;20.20;;;20.90;99.90;;;;;;6260982;23;20418;-91
2021/07/17 07:49:16;;;;;;;23.10;20.60;;;20.90;99.90;;;;;;6253928;23;20403;-91
2021/07/17 07:51:43;;;;;;;23.17;19.87;;;20.90;99.90;;;;;;6262119;23;20988;-91
2021/07/17 07:54:10;;;;;;;22.47;18.97;;;20.90;99.90;;;;;;6253905;22;20436;-90
2021/07/17 07:56:38;;;;;;;22.97;20.90;;;20.80;99.90;;;;;;6264780;22;20435;-89
2021/07/17 07:59:05;;;;;;;21.83;19.83;;;20.70;99.90;;;;;;6256719;22;20400;-90
2021/07/17 08:01:32;;;;;;;24.23;21.73;;;20.60;99.90;;;;;;6254731;23;20746;-91
2021/07/17 08:04:00;;;;;;;22.80;20.40;;;20.60;99.90;;;;;;6255055;22;20413;-90
2021/07/17 08:06:26;;;;;;;23.37;20.97;;;20.50;99.90;;;;;;6260958;23;20399;-90
2021/07/17 08:08:53;;;;;;;22.27;19.70;;;20.50;99.90;;;;;;6273083;23;20468;-90
2021/07/17 08:11:22;;;;;;;24.57;21.90;;;20.50;99.90;;;;;;6263292;22;20497;-91
2021/07/17 08:13:50;;;;;;;25.10;22.30;;;20.50;99.90;;;;;;6255165;22;20442;-90
2021/07/17 08:16:17;;;;;;;24.13;21.57;;;20.40;99.90;;;;;;6254470;23;20414;-90
2021/07/17 08:18:44;;;;;;;24.23;21.60;;;20.40;99.90;;;;;;6259294;23;20392;-91
2021/07/17 08:21:11;;;;;;;29.47;23.67;;;20.30;99.90;;;;;;6269130;22;20411;-89
2021/07/17 08:23:38;;;;;;;25.53;21.53;;;20.30;99.90;;;;;;6264295;22;20460;-91
2021/07/17 08:26:05;;;;;;;28.27;23.27;;;20.30;99.90;;;;;;6259678;23;20452;-91
2021/07/17 08:28:32;;;;;;;25.33;21.60;;;20.40;99.90;;;;;;6265076;22;20418;-91
2021/07/17 08:31:00;;;;;;;23.30;21.00;;;20.50;99.90;;;;;;6263910;23;20409;-89
2021/07/17 08:33:27;;;;;;;25.10;22.50;;;20.70;99.90;;;;;;6263050;22;20419;-90
2021/07/17 08:35:54;;;;;;;23.80;20.57;;;20.80;99.90;;;;;;6267553;23;20414;-91
2021/07/17 08:38:21;;;;;;;24.20;21.27;;;21.00;99.90;;;;;;6263214;23;20384;-90
2021/07/17 08:40:52;;;;;;;25.40;19.40;;;21.20;99.90;;;;;;6258541;23;20388;-91
2021/07/17 08:43:19;;;;;;;25.37;21.10;;;21.40;99.90;;;;;;6263394;22;20489;-91
2021/07/17 08:45:48;;;;;;;21.77;19.63;;;21.60;99.90;;;;;;6258334;23;20402;-91
2021/07/17 08:51:00;;;;;;;22.40;19.30;;;21.80;99.90;;;;;;6253432;23;20947;-89
2021/07/17 08:53:27;;;;;;;22.13;19.97;;;21.90;99.90;;;;;;6250989;22;20510;-88
2021/07/17 08:55:55;;;;;;;25.10;19.30;;;22.00;99.90;;;;;;6251782;23;20473;-89
2021/07/17 08:58:22;;;;;;;20.80;18.70;;;22.20;99.90;;;;;;6252724;23;20436;-90
2021/07/17 09:00:49;;;;;;;21.60;19.47;;;22.30;99.90;;;;;;6252793;23;20436;-88
2021/07/17 09:03:20;;;;;;;21.00;18.73;;;22.50;99.90;;;;;;6252741;22;20429;-89
2021/07/17 09:05:49;;;;;;;22.17;19.80;;;22.80;99.90;;;;;;6250782;23;20521;-89
2021/07/17 09:08:17;;;;;;;22.00;19.20;;;22.80;99.90;;;;;;6251268;23;20404;-90
2021/07/17 09:10:45;;;;;;;19.73;17.70;;;22.80;99.90;;;;;;6250914;23;20422;-89
2021/07/17 09:13:15;;;;;;;20.97;18.60;;;22.80;99.90;;;;;;6250923;22;20473;-87
2021/07/17 09:15:54;;;;;;;20.13;18.13;;;22.80;99.90;;;;;;6260637;23;20501;-89
2021/07/17 09:18:32;;;;;;;20.80;18.40;;;22.70;99.90;;;;;;6250697;23;20378;-90
2021/07/17 09:21:01;;;;;;;21.30;19.20;;;22.70;99.90;;;;;;6249686;23;20469;-88
2021/07/17 09:23:30;;;;;;;24.77;18.30;;;22.60;99.90;;;;;;6250461;22;20455;-89
2021/07/17 09:25:57;;;;;;;18.87;16.93;;;22.60;99.90;;;;;;6252812;23;20401;-89
2021/07/17 09:28:26;;;;;;;20.97;18.83;;;22.80;99.90;;;;;;6257292;23;20402;-89
2021/07/17 09:30:57;;;;;;;18.87;17.03;;;22.90;99.90;;;;;;6262407;23;20478;-89
2021/07/17 09:33:26;;;;;;;22.00;17.93;;;23.10;99.90;;;;;;6271255;22;20450;-90
2021/07/17 09:35:57;;;;;;;19.43;17.43;;;23.10;99.90;;;;;;6265903;23;20410;-89
2021/07/17 09:38:25;;;;;;;21.60;18.60;;;22.90;99.90;;;;;;6263841;23;20478;-90
2021/07/17 09:40:54;;;;;;;22.17;18.23;;;22.70;99.90;;;;;;6261695;23;20407;-89
2021/07/17 09:43:39;;;;;;;19.13;17.20;;;22.60;99.90;;;;;;6250753;22;20515;-89
2021/07/17 09:46:21;;;;;;;19.87;17.87;;;22.40;99.90;;;;;;6253897;23;20422;-90
2021/07/17 09:48:52;;;;;;;19.50;17.60;;;22.30;99.90;;;;;;6258505;23;20414;-91
2021/07/17 09:51:23;;;;;;;19.73;17.80;;;22.30;99.90;;;;;;6257280;23;20402;-90
2021/07/17 09:53:53;;;;;;;21.90;17.03;;;22.40;99.90;;;;;;6258239;22;20450;-91
2021/07/17 09:56:23;;;;;;;18.77;16.90;;;22.40;99.90;;;;;;6258488;23;20379;-90
2021/07/17 09:58:53;;;;;;;20.87;18.87;;;22.50;99.90;;;;;;6262149;23;20399;-90
2021/07/17 10:01:31;;;;;;;20.50;18.33;;;22.40;99.90;;;;;;6261939;23;20421;-90
2021/07/17 10:04:08;;;;;;;20.40;17.70;;;22.50;99.90;;;;;;6253192;22;20422;-90
2021/07/17 10:06:47;;;;;;;19.80;17.87;;;22.70;99.90;;;;;;6254178;23;20413;-90
2021/07/17 10:09:28;;;;;;;22.33;17.70;;;23.00;99.90;;;;;;6256977;23;20417;-90
2021/07/17 10:11:59;;;;;;;19.57;17.57;;;23.40;99.90;;;;;;6273001;23;20439;-91
2021/07/17 10:14:30;;;;;;;20.60;16.40;;;23.80;99.90;;;;;;6266146;22;20419;-90
2021/07/17 10:16:59;;;;;;;20.70;16.23;;;24.20;99.90;;;;;;6272473;22;20407;-90
2021/07/17 10:19:29;;;;;;;17.27;15.73;;;24.50;99.90;;;;;;6264442;23;20502;-90
2021/07/17 10:21:58;;;;;;;19.20;17.10;;;24.80;99.90;;;;;;6256169;23;20407;-89
2021/07/17 10:24:27;;;;;;;17.03;15.37;;;25.00;99.90;;;;;;6258474;23;20411;-89
2021/07/17 10:26:54;;;;;;;17.97;16.17;;;25.20;99.90;;;;;;6256565;23;20488;-90
2021/07/17 10:29:23;;;;;;;16.77;15.17;;;25.30;99.90;;;;;;6252880;23;20404;-88
2021/07/17 10:31:51;;;;;;;19.47;16.73;;;25.20;99.90;;;;;;6252979;23;20443;-90
2021/07/17 10:34:19;;;;;;;19.00;17.07;;;25.10;99.90;;;;;;6251469;22;20408;-89
2021/07/17 10:36:52;;;;;;;21.10;17.20;;;25.00;99.90;;;;;;6258372;23;20411;-89
2021/07/17 10:39:23;;;;;;;20.60;18.87;;;25.10;99.90;;;;;;6255948;23;20723;-89
2021/07/17 10:41:51;;;;;;;19.33;17.37;;;25.20;99.90;;;;;;6255526;23;20393;-89
2021/07/17 10:44:38;;;;;;;19.60;17.60;;;25.10;99.90;;;;;;6253433;22;20431;-89
2021/07/17 10:47:07;;;;;;;24.97;18.50;;;25.20;99.90;;;;;;6251490;23;20391;-90
2021/07/17 10:49:36;;;;;;;20.27;18.37;;;25.50;99.90;;;;;;6258277;23;20882;-91
2021/07/17 10:52:04;;;;;;;18.70;16.90;;;25.50;99.90;;;;;;6255876;22;20930;-89
2021/07/17 10:54:32;;;;;;;18.93;17.23;;;25.40;99.90;;;;;;6253214;23;20498;-89
2021/07/17 10:57:00;;;;;;;21.20;18.97;;;25.50;99.90;;;;;;6256597;23;20416;-89
2021/07/17 10:59:42;;;;;;;18.00;16.20;;;25.40;99.90;;;;;;6249309;23;20482;-90
2021/07/17 11:02:11;;;;;;;18.53;16.73;;;25.00;99.90;;;;;;6251391;22;20407;-89
2021/07/17 11:04:58;;;;;;;21.37;19.30;;;24.80;99.90;;;;;;6252338;23;20399;-89
2021/07/17 11:07:38;;;;;;;19.40;17.60;;;24.50;99.90;;;;;;6255874;23;20432;-90
2021/07/17 11:10:21;;;;;;;19.50;17.47;;;24.50;99.90;;;;;;6259948;23;20376;-89
2021/07/17 11:13:03;;;;;;;18.83;16.90;;;24.20;99.90;;;;;;6258848;22;20463;-90
2021/07/17 11:15:38;;;;;;;18.93;17.00;;;24.00;99.90;;;;;;6252736;23;20385;-90
2021/07/17 11:18:22;;;;;;;19.83;17.67;;;24.00;99.90;;;;;;6255232;23;20395;-89
2021/07/17 11:20:49;;;;;;;20.30;17.10;;;23.90;99.90;;;;;;6270742;23;20398;-90
2021/07/17 11:23:19;;;;;;;20.40;18.40;;;23.80;99.90;;;;;;6273915;22;20412;-88
2021/07/17 11:25:58;;;;;;;20.10;18.20;;;23.60;99.90;;;;;;6268801;22;20419;-87
2021/07/17 11:28:57;;;;;;;19.90;17.90;;;23.60;99.90;;;;;;6266366;22;20496;-90
2021/07/17 11:31:52;;;;;;;19.90;18.20;;;23.60;99.90;;;;;;6273198;22;20411;-91
2021/07/17 11:34:38;;;;;;;21.33;19.03;;;23.60;99.90;;;;;;6270554;22;20465;-91
2021/07/17 11:37:08;;;;;;;20.30;18.50;;;23.60;99.90;;;;;;6253206;23;20933;-91
2021/07/17 11:39:41;;;;;;;20.73;17.57;;;23.50;99.90;;;;;;6253402;23;20411;-90
2021/07/17 11:43:16;;;;;;;20.20;17.50;;;23.60;99.90;;;;;;6255414;22;20395;-93
2021/07/17 11:45:58;;;;;;;20.87;18.90;;;23.60;99.90;;;;;;6255268;23;20415;-93
2021/07/17 11:48:37;;;;;;;22.93;19.90;;;23.60;99.90;;;;;;6254898;23;20431;-90
2021/07/17 11:51:07;;;;;;;21.57;19.57;;;23.50;99.90;;;;;;6256109;23;20475;-90
2021/07/17 11:53:35;;;;;;;21.00;19.00;;;23.50;99.90;;;;;;6257036;22;20447;-90
2021/07/17 11:56:02;;;;;;;20.20;18.47;;;23.50;99.90;;;;;;6258145;23;20437;-89
2021/07/17 11:58:31;;;;;;;20.30;18.30;;;23.40;99.90;;;;;;6255368;23;20415;-88
2021/07/17 12:01:03;;;;;;;20.40;18.43;;;23.30;99.90;;;;;;6252315;23;20753;-90
2021/07/17 12:03:30;;;;;;;21.50;18.67;;;23.20;99.90;;;;;;6267249;22;20437;-90
2021/07/17 12:05:56;;;;;;;20.77;18.97;;;23.10;99.90;;;;;;6273826;22;20421;-89
2021/07/17 12:08:24;;;;;;;20.13;18.13;;;23.00;99.90;;;;;;6273143;22;20392;-91
2021/07/17 12:11:00;;;;;;;19.23;17.33;;;23.00;99.90;;;;;;6264110;23;20397;-91
2021/07/17 12:13:27;;;;;;;20.47;18.40;;;23.10;99.90;;;;;;6274158;22;20520;-89
2021/07/17 12:15:54;;;;;;;20.97;19.17;;;23.10;99.90;;;;;;6268770;22;20414;-91
2021/07/17 12:18:22;;;;;;;21.80;19.43;;;23.20;99.90;;;;;;6261545;23;20471;-89
2021/07/17 12:20:51;;;;;;;20.17;18.27;;;23.20;99.90;;;;;;6252914;23;20404;-89
2021/07/17 12:23:20;;;;;;;20.07;18.00;;;23.30;99.90;;;;;;6252243;22;20412;-90
2021/07/17 12:25:49;;;;;;;20.27;18.30;;;23.50;99.90;;;;;;6253318;23;20418;-90
2021/07/17 12:28:18;;;;;;;20.07;18.17;;;23.60;99.90;;;;;;6254926;23;20439;-91
2021/07/17 12:30:48;;;;;;;19.33;17.43;;;23.80;99.90;;;;;;6250529;23;20554;-91
2021/07/17 12:33:25;;;;;;;19.70;17.70;;;24.30;99.90;;;;;;6256475;22;20455;-91
2021/07/17 12:36:00;;;;;;;17.07;15.40;;;24.70;99.90;;;;;;6250657;23;20472;-91
2021/07/17 12:38:29;;;;;;;17.33;15.67;;;24.90;99.90;;;;;;6249134;23;20372;-90
2021/07/17 12:41:02;;;;;;;18.90;17.30;;;24.80;99.90;;;;;;6249251;23;20404;-90
2021/07/17 12:43:33;;;;;;;18.77;16.90;;;24.60;99.90;;;;;;6252213;22;20431;-90
2021/07/17 12:46:08;;;;;;;18.13;16.50;;;24.30;99.90;;;;;;6257586;23;20423;-90
2021/07/17 12:48:49;;;;;;;19.40;17.70;;;24.10;99.90;;;;;;6252140;23;20478;-91
2021/07/17 12:51:25;;;;;;;18.27;16.33;;;24.10;99.90;;;;;;6251548;23;20424;-91
2021/07/17 12:53:53;;;;;;;18.43;16.73;;;24.30;99.90;;;;;;6248104;22;20449;-89
2021/07/17 12:59:34;;;;;;;17.17;15.70;;;24.80;99.90;;;;;;6203628;22;20444;-79
2021/07/17 13:02:08;;;;;;;17.90;16.30;;;24.90;99.90;;;;;;6254142;23;20403;-83
2021/07/17 13:04:45;;;;;;;18.77;16.87;;;25.00;99.90;;;;;;6248138;23;20389;-82
2021/07/17 13:07:11;;;;;;;19.30;17.27;;;24.90;99.90;;;;;;6249483;23;20467;-84
2021/07/17 13:09:39;;;;;;;20.93;18.97;;;24.70;99.90;;;;;;6251000;22;20468;-83
2021/07/17 13:12:08;;;;;;;18.40;16.70;;;24.60;99.90;;;;;;6252612;23;20410;-83
2021/07/17 13:14:35;;;;;;;22.10;18.17;;;24.50;99.90;;;;;;6253708;23;20442;-81
2021/07/17 13:17:09;;;;;;;22.37;18.73;;;24.40;99.90;;;;;;6251752;23;20411;-83
2021/07/17 13:19:37;;;;;;;24.07;18.33;;;24.50;99.90;;;;;;6250186;22;20420;-83
2021/07/17 13:22:07;;;;;;;23.40;18.30;;;24.50;99.90;;;;;;6251099;23;20411;-83
2021/07/17 13:24:40;;;;;;;19.33;17.43;;;24.70;99.90;;;;;;6251007;23;20739;-81
2021/07/17 13:27:07;;;;;;;19.67;17.80;;;24.60;99.90;;;;;;6252861;23;20420;-82
2021/07/17 13:29:34;;;;;;;17.97;16.47;;;24.80;99.90;;;;;;6251059;22;20927;-82
2021/07/17 13:32:03;;;;;;;17.00;15.50;;;25.30;99.90;;;;;;6268914;22;20399;-82
2021/07/17 13:34:31;;;;;;;17.57;16.07;;;25.80;99.90;;;;;;6268088;23;20443;-83
2021/07/17 13:37:05;;;;;;;17.27;15.40;;;26.20;99.90;;;;;;6259343;23;20412;-84
2021/07/17 13:39:51;;;;;;;16.80;15.20;;;26.60;99.90;;;;;;6256759;22;20462;-84
2021/07/17 13:42:20;;;;;;;16.70;15.00;;;28.10;98.90;;;;;;6256388;23;20431;-85
2021/07/17 13:44:48;;;;;;;16.43;15.03;;;29.00;96.30;;;;;;6254475;23;20411;-85
2021/07/17 13:47:18;;;;;;;15.63;14.30;;;29.00;95.20;;;;;;6256188;23;20403;-84
2021/07/17 13:49:47;;;;;;;17.77;16.20;;;28.20;95.70;;;;;;6255152;22;20438;-85
2021/07/17 13:52:37;;;;;;;16.30;15.00;;;27.50;96.60;;;;;;6270210;22;20412;-83
2021/07/17 13:55:07;;;;;;;17.67;16.03;;;26.80;98.00;;;;;;6261032;22;20502;-84
2021/07/17 13:57:36;;;;;;;16.27;14.87;;;26.30;99.00;;;;;;6254246;23;20432;-84
2021/07/17 14:00:17;;;;;;;15.60;14.23;;;26.30;99.60;;;;;;6253645;22;20428;-84
2021/07/17 14:02:47;;;;;;;16.03;14.60;;;26.80;99.10;;;;;;6252979;23;20444;-85
2021/07/17 14:05:16;;;;;;;16.97;15.50;;;26.90;98.20;;;;;;6252496;23;20420;-84
2021/07/17 14:07:44;;;;;;;15.07;13.77;;;26.80;98.50;;;;;;6252887;23;20400;-84
2021/07/17 14:10:13;;;;;;;15.80;14.30;;;27.10;98.60;;;;;;6250514;22;20433;-84
2021/07/17 14:12:41;;;;;;;14.60;13.40;;;27.60;97.20;;;;;;6253648;23;20412;-84
2021/07/17 14:15:09;;;;;;;16.40;14.93;;;27.50;97.10;;;;;;6258561;23;20439;-84
2021/07/17 14:17:36;;;;;;;14.13;13.03;;;27.20;97.30;;;;;;6255704;23;20430;-84
2021/07/17 14:20:03;;;;;;;15.03;13.50;;;26.90;97.80;;;;;;6254696;22;20792;-83
2021/07/17 14:22:33;;;;;;;15.07;13.67;;;26.50;98.40;;;;;;6254370;23;20400;-84
2021/07/17 14:25:01;;;;;;;14.43;13.13;;;26.10;99.10;;;;;;6260076;23;20483;-84
2021/07/17 14:27:28;;;;;;;15.60;14.40;;;26.00;99.90;;;;;;6260583;23;20422;-84